Time;durP1;ratioP1;P1;durP2;ratioP2;P2;SDS_P1;SDS_P2;PMS_P1;PMS_P2;Temp;Humidity;BMP_temperature;BMP_pressure;BME280_temperature;BME280_humidity;BME280_pressure;Samples;Min_cycle;Max_cycle;Signal;HPM_P1;HPM_P2
2023/05/29 00:00:37;;;;;;;8.77;4.55;;;;;;;10.04;93.73;97285.41;5000293;28;20052;-63
2023/05/29 00:03:04;;;;;;;7.47;3.72;;;;;;;10.13;92.78;97277.66;5004000;28;20520;-64
2023/05/29 00:05:31;;;;;;;11.05;4.32;;;;;;;10.03;93.84;97281.06;5002231;28;20066;-64
2023/05/29 00:07:58;;;;;;;8.35;3.95;;;;;;;10.01;93.73;97285.91;5003400;28;20037;-64
2023/05/29 00:10:24;;;;;;;7.45;4.15;;;;;;;10.02;93.99;97284.81;5002488;28;20049;-64
2023/05/29 00:12:51;;;;;;;10.00;4.30;;;;;;;9.82;94.31;97291.59;5000119;28;20076;-63
2023/05/29 00:15:18;;;;;;;10.18;4.20;;;;;;;9.79;95.83;97288.56;5003868;28;20034;-64
2023/05/29 00:17:44;;;;;;;9.13;4.82;;;;;;;9.70;96.01;97283.56;4999150;28;20543;-64
2023/05/29 00:20:11;;;;;;;6.78;4.00;;;;;;;9.65;96.12;97282.72;4995309;28;20046;-63
2023/05/29 00:22:38;;;;;;;8.38;4.30;;;;;;;9.71;96.44;97287.94;5002700;28;20120;-63
2023/05/29 00:25:07;;;;;;;8.25;3.83;;;;;;;9.65;97.36;97294.31;5003985;28;20044;-64
2023/05/29 00:27:34;;;;;;;7.65;3.90;;;;;;;9.65;97.00;97288.91;5000897;28;20045;-64
2023/05/29 00:30:03;;;;;;;9.95;4.22;;;;;;;9.54;97.83;97289.84;4997142;28;20050;-64
2023/05/29 00:32:29;;;;;;;9.02;4.47;;;;;;;9.59;97.47;97285.31;5000220;28;20044;-63
2023/05/29 00:34:56;;;;;;;8.32;4.13;;;;;;;9.57;97.42;97287.47;5002470;28;20409;-63
2023/05/29 00:37:22;;;;;;;7.97;4.00;;;;;;;9.44;98.37;97282.41;5001169;28;20046;-64
2023/05/29 00:39:49;;;;;;;8.18;4.20;;;;;;;9.45;98.79;97279.44;5001767;28;20041;-64
2023/05/29 00:42:16;;;;;;;11.02;4.60;;;;;;;9.46;98.14;97278.38;5003006;28;20166;-63
2023/05/29 00:44:42;;;;;;;8.10;4.15;;;;;;;9.45;97.92;97284.03;4998498;28;20417;-64
2023/05/29 00:47:09;;;;;;;10.95;4.03;;;;;;;9.47;98.24;97277.31;5000074;28;20048;-64
2023/05/29 00:49:38;;;;;;;9.55;4.03;;;;;;;9.37;98.55;97271.75;5001293;28;20050;-63
2023/05/29 00:52:07;;;;;;;8.80;4.60;;;;;;;9.33;98.95;97268.72;5002557;28;20037;-64
2023/05/29 00:54:34;;;;;;;6.30;3.88;;;;;;;9.32;99.05;97277.09;5001923;28;20054;-63
2023/05/29 00:57:03;;;;;;;8.93;3.63;;;;;;;9.36;99.01;97272.81;4993612;28;20941;-63
2023/05/29 00:59:31;;;;;;;8.05;4.13;;;;;;;9.13;99.73;97274.63;4998102;28;20045;-63
2023/05/29 01:02:00;;;;;;;11.35;4.00;;;;;;;9.25;99.83;97271.81;5000076;28;20580;-64
2023/05/29 01:04:27;;;;;;;10.18;4.40;;;;;;;9.24;99.35;97270.19;4997696;28;20049;-64
2023/05/29 01:06:55;;;;;;;10.38;4.03;;;;;;;9.28;99.38;97267.84;4998992;28;20053;-63
2023/05/29 01:09:22;;;;;;;11.45;3.83;;;;;;;9.23;99.37;97273.97;5000813;28;20046;-64
2023/05/29 01:12:30;;;;;;;7.18;3.65;;;;;;;9.34;98.55;97266.84;4998287;28;20044;-63
2023/05/29 01:15:12;;;;;;;9.38;3.95;;;;;;;9.46;98.37;97262.16;4988085;28;20149;-64
2023/05/29 01:17:51;;;;;;;9.23;4.15;;;;;;;9.26;99.04;97261.84;5000044;28;20145;-63
2023/05/29 01:20:31;;;;;;;9.25;4.15;;;;;;;9.17;99.47;97259.56;4994039;28;20044;-63
2023/05/29 01:23:09;;;;;;;10.13;3.90;;;;;;;9.12;99.41;97259.47;5000677;28;20044;-64
2023/05/29 01:25:49;;;;;;;6.63;3.97;;;;;;;9.15;99.60;97255.47;5001826;28;20120;-63
2023/05/29 01:28:18;;;;;;;7.00;4.00;;;;;;;9.05;99.99;97259.63;4992246;28;20133;-63
2023/05/29 01:30:46;;;;;;;8.23;3.90;;;;;;;9.10;99.58;97257.03;5006163;28;20050;-63
2023/05/29 01:33:13;;;;;;;10.65;4.25;;;;;;;9.20;99.17;97255.53;4992710;28;20069;-63
2023/05/29 01:35:39;;;;;;;7.78;4.07;;;;;;;9.32;98.10;97264.38;4998455;28;20084;-63
2023/05/29 01:38:06;;;;;;;9.90;4.05;;;;;;;9.35;97.70;97265.75;5001286;28;20038;-64
2023/05/29 01:40:32;;;;;;;10.23;4.35;;;;;;;9.34;97.56;97254.16;4990030;28;20153;-64
2023/05/29 01:43:00;;;;;;;7.93;4.03;;;;;;;9.43;97.35;97259.16;4987465;28;20064;-64
2023/05/29 01:45:26;;;;;;;9.02;3.95;;;;;;;9.28;97.59;97257.03;4985657;28;20135;-64
2023/05/29 01:47:53;;;;;;;7.47;3.88;;;;;;;9.13;98.54;97258.41;4994703;28;20653;-64
2023/05/29 01:50:22;;;;;;;9.25;4.32;;;;;;;9.21;97.88;97259.88;4990747;28;20046;-64
2023/05/29 01:52:50;;;;;;;8.90;3.83;;;;;;;9.18;97.96;97263.09;4987004;28;20172;-63
2023/05/29 01:55:17;;;;;;;7.10;3.42;;;;;;;9.30;96.88;97265.69;4997167;28;20041;-64
2023/05/29 01:57:44;;;;;;;8.15;3.78;;;;;;;9.32;96.82;97267.09;5000197;28;20046;-64
2023/05/29 02:00:11;;;;;;;7.20;3.85;;;;;;;9.34;96.32;97261.44;4999178;28;20038;-64
2023/05/29 02:02:41;;;;;;;7.03;4.35;;;;;;;9.34;96.30;97266.84;5003682;28;20044;-64
2023/05/29 02:05:08;;;;;;;11.05;4.22;;;;;;;9.32;96.59;97269.78;5004630;28;20066;-64
2023/05/29 02:07:36;;;;;;;10.45;4.90;;;;;;;9.27;96.60;97258.06;5002583;28;20140;-64
2023/05/29 02:10:06;;;;;;;11.68;4.75;;;;;;;9.11;97.71;97264.06;5000233;28;20033;-64
2023/05/29 02:12:33;;;;;;;8.88;4.47;;;;;;;9.09;97.91;97266.19;5002472;28;20644;-64
2023/05/29 02:14:59;;;;;;;9.63;4.97;;;;;;;9.13;97.14;97252.19;5003455;28;20584;-64
2023/05/29 02:17:27;;;;;;;9.65;5.13;;;;;;;9.03;97.96;97250.94;4991188;28;20162;-64
2023/05/29 02:19:53;;;;;;;11.07;4.80;;;;;;;9.06;97.96;97253.16;5011869;28;20674;-64
2023/05/29 02:22:20;;;;;;;7.60;4.57;;;;;;;9.06;97.65;97257.75;4994967;28;20042;-64
2023/05/29 02:24:46;;;;;;;10.50;4.90;;;;;;;8.95;97.89;97257.59;4999230;28;20556;-64
2023/05/29 02:27:13;;;;;;;9.23;5.10;;;;;;;8.93;98.28;97262.44;4994810;28;20042;-64
2023/05/29 02:29:41;;;;;;;7.85;4.65;;;;;;;8.69;99.29;97261.72;4998070;28;20065;-64
2023/05/29 02:32:07;;;;;;;12.30;4.97;;;;;;;8.88;98.39;97264.22;5001554;28;20054;-64
2023/05/29 02:34:34;;;;;;;8.70;4.80;;;;;;;8.95;98.03;97256.75;4995015;28;20057;-64
2023/05/29 02:37:01;;;;;;;9.98;5.80;;;;;;;8.93;97.96;97265.13;5004008;28;20120;-64
2023/05/29 02:39:27;;;;;;;7.47;4.97;;;;;;;8.84;98.05;97261.16;5003947;28;20042;-63
2023/05/29 02:41:54;;;;;;;9.80;4.72;;;;;;;8.77;98.55;97261.31;5000085;28;20046;-64
2023/05/29 02:44:21;;;;;;;10.10;5.30;;;;;;;8.79;98.36;97252.97;5006119;28;20042;-64
2023/05/29 02:46:48;;;;;;;10.00;5.50;;;;;;;8.82;98.00;97257.91;4987718;28;20062;-64
2023/05/29 02:49:18;;;;;;;9.38;5.05;;;;;;;8.86;97.51;97250.94;4996168;28;20042;-64
2023/05/29 02:51:44;;;;;;;10.32;4.97;;;;;;;8.85;97.37;97254.72;5002854;28;20052;-64
2023/05/29 02:54:12;;;;;;;9.23;4.35;;;;;;;8.88;97.95;97250.72;5005147;28;20513;-64
2023/05/29 02:56:39;;;;;;;10.30;5.15;;;;;;;8.76;98.42;97250.75;5014634;28;20041;-64
2023/05/29 02:59:06;;;;;;;10.27;4.55;;;;;;;8.74;98.88;97251.03;4996133;28;20037;-64
2023/05/29 03:01:32;;;;;;;10.23;5.10;;;;;;;8.76;98.59;97256.16;4997568;28;20046;-64
2023/05/29 03:03:59;;;;;;;11.18;5.78;;;;;;;8.81;98.21;97258.97;5000014;28;20042;-64
2023/05/29 03:06:26;;;;;;;7.88;4.47;;;;;;;8.86;97.37;97253.66;5002659;28;20425;-64
2023/05/29 03:08:52;;;;;;;9.13;4.85;;;;;;;8.78;97.49;97254.88;5000538;28;20049;-64
2023/05/29 03:11:20;;;;;;;9.88;4.15;;;;;;;8.90;96.53;97248.56;4994053;28;20049;-64
2023/05/29 03:13:49;;;;;;;9.25;4.35;;;;;;;8.85;97.26;97257.41;4997976;28;20053;-64
2023/05/29 03:16:16;;;;;;;9.10;4.00;;;;;;;8.76;97.15;97254.28;4991320;28;20125;-64
2023/05/29 03:18:44;;;;;;;8.70;4.07;;;;;;;8.35;98.84;97242.69;4996802;28;20059;-64
2023/05/29 03:21:11;;;;;;;7.88;4.35;;;;;;;8.18;100.00;97241.59;5000667;28;20437;-64
2023/05/29 03:23:38;;;;;;;12.32;5.03;;;;;;;8.35;100.00;97240.84;4996673;28;20048;-64
2023/05/29 03:26:05;;;;;;;11.68;5.55;;;;;;;8.41;99.88;97244.44;5000870;28;20033;-64
2023/05/29 03:28:34;;;;;;;13.73;5.70;;;;;;;8.32;100.00;97249.41;5001512;28;20153;-64
2023/05/29 03:31:03;;;;;;;12.88;6.03;;;;;;;8.24;100.00;97250.59;4987726;28;20579;-64
2023/05/29 03:33:30;;;;;;;9.77;5.15;;;;;;;8.31;100.00;97245.91;4993357;28;20057;-64
2023/05/29 03:36:18;;;;;;;10.25;5.15;;;;;;;8.26;100.00;97250.38;4994201;28;20038;-64
2023/05/29 03:38:44;;;;;;;11.15;5.60;;;;;;;8.31;100.00;97243.22;4995921;28;20104;-64
2023/05/29 03:41:11;;;;;;;;;;;;;;;8.49;99.83;97244.06;5000343;28;20038;-64
2023/05/29 03:43:37;;;;;;;10.30;4.85;;;;;;;8.53;99.33;97247.13;5008333;28;19922;-64
2023/05/29 03:46:04;;;;;;;7.47;3.95;;;;;;;8.46;99.91;97248.06;4999318;28;20054;-64
2023/05/29 03:48:33;;;;;;;9.50;4.47;;;;;;;8.48;99.90;97249.69;4990765;28;20054;-64
2023/05/29 03:50:59;;;;;;;9.80;4.50;;;;;;;8.41;100.00;97242.56;4997677;28;20041;-64
2023/05/29 03:53:31;;;;;;;8.82;4.85;;;;;;;8.46;99.82;97255.34;4995418;28;20673;-64
2023/05/29 03:55:57;;;;;;;6.82;4.00;;;;;;;8.52;100.00;97256.25;4998907;28;20037;-64
2023/05/29 03:58:24;;;;;;;10.07;4.45;;;;;;;8.37;100.00;97257.59;5001433;28;20065;-64
2023/05/29 04:00:52;;;;;;;8.50;4.13;;;;;;;8.41;100.00;97263.34;4996296;28;20088;-64
2023/05/29 04:03:19;;;;;;;9.63;3.88;;;;;;;8.37;100.00;97262.97;5002870;28;20049;-64
2023/05/29 04:05:46;;;;;;;7.85;4.28;;;;;;;8.41;100.00;97266.84;5002207;28;20104;-64
2023/05/29 04:08:13;;;;;;;7.60;3.65;;;;;;;8.59;99.49;97267.75;5001513;28;20077;-64
2023/05/29 04:10:43;;;;;;;8.65;4.45;;;;;;;8.59;99.62;97271.25;5002873;28;20034;-64
2023/05/29 04:13:09;;;;;;;7.07;3.78;;;;;;;8.64;98.32;97267.84;4996970;28;20050;-64
2023/05/29 04:15:38;;;;;;;9.25;3.75;;;;;;;8.65;98.50;97272.19;5000678;28;20535;-64
2023/05/29 04:18:04;;;;;;;6.78;3.65;;;;;;;8.61;99.39;97276.41;5001123;28;20053;-64
2023/05/29 04:20:32;;;;;;;7.97;3.33;;;;;;;8.67;99.05;97282.75;4999162;28;20128;-64
2023/05/29 04:22:59;;;;;;;10.02;4.03;;;;;;;8.66;99.09;97287.31;4999040;28;20568;-64
2023/05/29 04:25:26;;;;;;;9.27;4.00;;;;;;;8.79;98.18;97290.78;4997784;28;20557;-65
2023/05/29 04:27:53;;;;;;;6.43;3.35;;;;;;;8.81;98.49;97294.06;4993128;28;20421;-65
2023/05/29 04:30:21;;;;;;;10.05;3.58;;;;;;;8.89;98.54;97296.38;4996351;28;20045;-64
2023/05/29 04:32:48;;;;;;;7.43;3.67;;;;;;;8.88;99.43;97302.00;4991581;28;20731;-64
2023/05/29 04:35:15;;;;;;;7.47;3.83;;;;;;;8.96;98.80;97305.13;5000426;28;20038;-64
2023/05/29 04:37:50;;;;;;;6.20;3.50;;;;;;;9.08;98.44;97309.66;4994681;28;20056;-64
2023/05/29 04:40:17;;;;;;;8.50;4.30;;;;;;;9.13;98.07;97319.72;5001289;28;20425;-64
2023/05/29 04:42:45;;;;;;;8.00;4.00;;;;;;;9.19;97.60;97313.34;4994076;28;20505;-64
2023/05/29 04:45:13;;;;;;;8.35;3.65;;;;;;;9.09;99.41;97313.97;4990622;28;20107;-65
2023/05/29 04:47:45;;;;;;;10.23;3.92;;;;;;;9.17;99.19;97323.56;4998230;28;20053;-64
2023/05/29 04:50:13;;;;;;;8.50;3.83;;;;;;;9.29;98.65;97320.81;4996306;28;20050;-64
2023/05/29 04:52:43;;;;;;;10.10;4.35;;;;;;;9.41;98.52;97315.31;4994009;28;20052;-64
2023/05/29 04:55:10;;;;;;;7.85;4.32;;;;;;;9.54;98.26;97319.59;4997756;28;20085;-64
2023/05/29 04:57:37;;;;;;;7.32;3.83;;;;;;;9.62;98.74;97321.88;4994677;28;20064;-64
2023/05/29 05:00:13;;;;;;;7.32;3.40;;;;;;;9.62;98.73;97319.16;4992913;28;20115;-64
2023/05/29 05:02:43;;;;;;;10.32;4.30;;;;;;;9.78;98.84;97319.38;4988319;28;20152;-64
2023/05/29 05:05:11;;;;;;;7.63;4.25;;;;;;;9.90;97.60;97317.41;4996359;28;20050;-64
2023/05/29 05:07:38;;;;;;;9.10;4.20;;;;;;;9.92;99.31;97326.09;4998015;28;20045;-64
2023/05/29 05:10:06;;;;;;;9.55;4.55;;;;;;;10.10;98.09;97321.47;4991932;28;20077;-64
2023/05/29 05:12:32;;;;;;;9.20;4.20;;;;;;;10.25;97.50;97328.97;4995761;28;20751;-64
2023/05/29 05:15:01;;;;;;;9.05;4.03;;;;;;;10.35;97.13;97339.91;4993671;28;20096;-64
2023/05/29 05:17:28;;;;;;;8.20;3.78;;;;;;;10.41;97.55;97329.97;4999163;28;20040;-64
2023/05/29 05:19:55;;;;;;;10.30;4.13;;;;;;;10.54;96.97;97323.38;4993869;28;20193;-64
2023/05/29 05:22:22;;;;;;;8.60;3.78;;;;;;;10.68;97.83;97317.59;4996914;28;20041;-64
2023/05/29 05:24:49;;;;;;;7.15;3.70;;;;;;;10.83;96.73;97319.63;4996376;28;20038;-65
2023/05/29 05:27:16;;;;;;;8.18;3.55;;;;;;;10.97;96.20;97323.56;4990341;28;20505;-64
2023/05/29 05:29:42;;;;;;;9.38;4.35;;;;;;;11.03;96.36;97322.53;4997366;28;20111;-64
2023/05/29 05:32:09;;;;;;;8.77;4.13;;;;;;;11.22;95.08;97324.88;4992814;28;20141;-64
2023/05/29 05:34:35;;;;;;;7.78;3.85;;;;;;;11.35;95.37;97329.06;5010877;28;20045;-64
2023/05/29 05:37:02;;;;;;;8.57;4.15;;;;;;;11.53;92.77;97329.72;5000051;28;20065;-64
2023/05/29 05:39:29;;;;;;;11.13;4.30;;;;;;;11.69;91.41;97326.06;4999003;28;20041;-64
2023/05/29 05:41:56;;;;;;;8.45;4.35;;;;;;;11.86;90.71;97330.53;5001710;28;20112;-64
2023/05/29 05:44:43;;;;;;;8.68;4.32;;;;;;;12.10;89.61;97336.38;5000661;28;20049;-64
2023/05/29 05:47:12;;;;;;;7.95;3.90;;;;;;;12.25;87.77;97337.56;5001188;28;20132;-64
2023/05/29 05:49:39;;;;;;;8.77;3.65;;;;;;;12.38;86.30;97346.31;4993422;28;20037;-64
2023/05/29 05:52:06;;;;;;;8.80;4.20;;;;;;;12.52;85.42;97347.47;4999411;28;20133;-64
2023/05/29 05:54:33;;;;;;;7.97;3.83;;;;;;;12.65;85.82;97348.06;4996709;28;20547;-65
2023/05/29 05:57:00;;;;;;;7.45;2.90;;;;;;;12.81;83.39;97352.47;4999087;28;20046;-64
2023/05/29 05:59:28;;;;;;;7.47;3.22;;;;;;;13.01;79.54;97356.28;4999246;28;20124;-64
2023/05/29 06:01:54;;;;;;;7.80;3.75;;;;;;;13.21;77.42;97357.44;4995959;28;20631;-64
2023/05/29 06:04:21;;;;;;;5.95;3.10;;;;;;;13.57;74.73;97354.78;4999352;28;20038;-64
2023/05/29 06:06:48;;;;;;;6.60;3.13;;;;;;;13.75;71.25;97363.50;4999780;28;20161;-64
2023/05/29 06:09:14;;;;;;;8.10;3.13;;;;;;;13.92;70.48;97368.63;4999882;28;20049;-64
2023/05/29 06:11:41;;;;;;;5.97;3.03;;;;;;;14.07;70.34;97375.97;5000589;28;20088;-64
2023/05/29 06:14:07;;;;;;;6.05;2.70;;;;;;;14.25;69.41;97371.03;5001189;28;20042;-64
2023/05/29 06:16:35;;;;;;;7.40;2.67;;;;;;;14.33;68.66;97377.84;5002919;28;20121;-64
2023/05/29 06:19:02;;;;;;;5.72;2.63;;;;;;;14.31;68.33;97380.81;4999536;28;20045;-62
2023/05/29 06:21:32;;;;;;;9.17;3.30;;;;;;;14.34;69.65;97379.47;4999998;28;20128;-62
2023/05/29 06:24:00;;;;;;;6.07;3.00;;;;;;;14.44;68.69;97377.53;5000905;28;20046;-64
2023/05/29 06:26:28;;;;;;;6.20;2.83;;;;;;;14.50;68.87;97382.94;4999638;28;20521;-64
2023/05/29 06:28:54;;;;;;;6.90;2.90;;;;;;;14.54;68.60;97379.41;4997339;28;20046;-64
2023/05/29 06:31:21;;;;;;;7.63;3.20;;;;;;;14.62;67.48;97388.91;5001695;28;20437;-64
2023/05/29 06:33:47;;;;;;;7.80;3.53;;;;;;;14.67;67.72;97388.06;4986654;28;20335;-64
2023/05/29 06:36:14;;;;;;;6.65;2.72;;;;;;;14.74;65.96;97395.97;4958468;28;20388;-64
2023/05/29 06:38:48;;;;;;;6.25;2.65;;;;;;;14.76;65.54;97399.19;4987402;28;20061;-64
2023/05/29 06:41:15;;;;;;;6.70;3.13;;;;;;;14.76;64.86;97404.66;5000741;28;20104;-64
2023/05/29 06:43:41;;;;;;;7.13;3.30;;;;;;;14.77;65.25;97406.31;5000323;28;20053;-64
2023/05/29 06:46:10;;;;;;;9.00;3.35;;;;;;;14.83;64.56;97408.72;5005230;28;20076;-64
2023/05/29 06:48:37;;;;;;;8.25;3.22;;;;;;;14.94;64.93;97400.53;5003819;28;20054;-64
2023/05/29 06:51:11;;;;;;;6.00;2.80;;;;;;;14.99;64.67;97402.41;4997447;28;20117;-64
2023/05/29 06:53:53;;;;;;;9.50;2.80;;;;;;;15.11;66.12;97407.53;5001416;28;20179;-65
2023/05/29 06:56:20;;;;;;;10.40;4.05;;;;;;;15.14;64.20;97417.91;5004273;28;20076;-64
2023/05/29 06:58:47;;;;;;;10.35;3.85;;;;;;;15.26;64.76;97407.44;4999248;28;20049;-64
2023/05/29 07:01:16;;;;;;;6.95;3.15;;;;;;;15.32;64.05;97419.97;5001813;28;20042;-65
2023/05/29 07:03:53;;;;;;;6.78;2.90;;;;;;;15.40;64.21;97420.47;4998366;28;20056;-64
2023/05/29 07:06:20;;;;;;;5.40;2.80;;;;;;;15.47;65.00;97423.69;4995673;28;20069;-64
2023/05/29 07:08:47;;;;;;;9.30;3.00;;;;;;;15.58;63.70;97421.69;4999915;28;20050;-64
2023/05/29 07:11:14;;;;;;;29.90;5.45;;;;;;;15.56;63.97;97421.97;4989449;28;20045;-65
2023/05/29 07:13:40;;;;;;;6.88;2.92;;;;;;;15.65;64.54;97432.28;4995998;28;20049;-64
2023/05/29 07:16:07;;;;;;;7.30;3.30;;;;;;;15.70;64.42;97435.00;4995446;28;20131;-64
2023/05/29 07:18:53;;;;;;;5.10;2.70;;;;;;;15.80;63.83;97426.72;4990454;28;20582;-64
2023/05/29 07:21:20;;;;;;;5.75;3.38;;;;;;;15.86;64.09;97422.06;4993962;28;20073;-64
2023/05/29 07:23:47;;;;;;;7.22;3.42;;;;;;;15.89;63.90;97426.94;4993351;28;20061;-64
2023/05/29 07:26:14;;;;;;;10.82;3.25;;;;;;;15.99;63.90;97426.88;5000637;28;20141;-64
2023/05/29 07:28:40;;;;;;;5.53;2.90;;;;;;;16.10;63.94;97427.59;4994057;28;20038;-64
2023/05/29 07:31:08;;;;;;;6.28;3.15;;;;;;;16.13;63.25;97431.69;4993228;28;20065;-64
2023/05/29 07:33:34;;;;;;;6.07;3.25;;;;;;;16.11;63.48;97428.44;5003078;28;20042;-64
2023/05/29 07:36:01;;;;;;;10.20;3.42;;;;;;;16.17;63.36;97427.28;5001092;28;20034;-64
2023/05/29 07:38:28;;;;;;;7.25;3.20;;;;;;;16.25;63.03;97432.13;4999946;28;20042;-64
2023/05/29 07:40:55;;;;;;;7.65;3.53;;;;;;;16.43;61.52;97427.03;4989025;28;20128;-63
2023/05/29 07:43:30;;;;;;;7.05;2.97;;;;;;;16.57;61.98;97423.59;4999443;28;20045;-64
2023/05/29 07:46:03;;;;;;;5.35;3.20;;;;;;;16.60;60.29;97425.75;4986931;28;20043;-64
2023/05/29 07:48:30;;;;;;;7.18;3.47;;;;;;;16.74;61.11;97423.94;4995052;28;20042;-64
2023/05/29 07:50:58;;;;;;;8.48;3.38;;;;;;;16.78;60.21;97426.94;4994070;28;20509;-65
2023/05/29 07:53:27;;;;;;;8.30;3.53;;;;;;;16.75;59.06;97431.06;4995144;28;20160;-64
2023/05/29 07:55:54;;;;;;;6.82;3.40;;;;;;;16.83;58.61;97429.59;4991597;28;20453;-64
2023/05/29 07:58:21;;;;;;;5.72;3.20;;;;;;;16.83;59.22;97426.03;4999556;28;20038;-64
2023/05/29 08:00:49;;;;;;;7.97;3.08;;;;;;;16.87;59.63;97427.91;4990871;28;21570;-64
2023/05/29 08:03:15;;;;;;;6.78;3.67;;;;;;;16.84;59.18;97430.41;4998012;28;20052;-64
2023/05/29 08:06:18;;;;;;;6.72;3.30;;;;;;;16.92;59.92;97427.03;4969716;28;20212;-64
2023/05/29 08:08:45;;;;;;;7.88;3.35;;;;;;;17.05;60.81;97427.44;4957626;28;20525;-64
2023/05/29 08:11:12;;;;;;;8.27;3.72;;;;;;;17.19;58.56;97427.53;4986682;28;20730;-63
2023/05/29 08:13:39;;;;;;;7.38;3.30;;;;;;;17.30;58.04;97431.78;4995643;28;20652;-64
2023/05/29 08:16:06;;;;;;;7.30;3.05;;;;;;;17.46;58.63;97429.63;4993575;28;20044;-64
2023/05/29 08:18:33;;;;;;;6.63;3.20;;;;;;;17.44;56.59;97428.31;4996182;28;20042;-64
2023/05/29 08:21:00;;;;;;;7.18;3.47;;;;;;;17.49;56.69;97430.97;4992604;28;20041;-64
2023/05/29 08:23:27;;;;;;;7.63;3.53;;;;;;;17.51;57.41;97432.28;4999010;28;20046;-64
2023/05/29 08:25:54;;;;;;;6.72;3.00;;;;;;;17.61;56.35;97425.06;4994586;28;20057;-64
2023/05/29 08:28:21;;;;;;;8.95;3.42;;;;;;;17.74;57.19;97429.78;4996471;28;20632;-65
2023/05/29 08:30:47;;;;;;;8.30;3.28;;;;;;;17.89;57.06;97433.38;4990001;28;20584;-64
2023/05/29 08:33:14;;;;;;;7.75;3.83;;;;;;;17.94;57.17;97428.63;4999458;28;20049;-64
2023/05/29 08:35:41;;;;;;;7.97;4.03;;;;;;;17.91;56.28;97428.44;4994742;28;20035;-64
2023/05/29 08:38:07;;;;;;;6.63;3.40;;;;;;;17.76;57.19;97435.75;4994865;28;20038;-64
2023/05/29 08:40:34;;;;;;;5.70;3.08;;;;;;;17.98;57.49;97436.25;4995544;28;20058;-64
2023/05/29 08:43:17;;;;;;;8.07;3.25;;;;;;;18.07;57.19;97434.47;5001209;28;20052;-64
2023/05/29 08:45:45;;;;;;;9.77;4.40;;;;;;;18.24;56.37;97427.63;4997729;28;20052;-65
2023/05/29 08:48:12;;;;;;;8.32;3.00;;;;;;;18.48;54.17;97437.59;4987346;28;20046;-64
2023/05/29 08:50:47;;;;;;;6.38;3.05;;;;;;;18.48;54.38;97432.94;4992182;28;20057;-64
2023/05/29 08:53:15;;;;;;;7.68;3.00;;;;;;;18.49;54.51;97436.50;4995572;28;20041;-64
2023/05/29 08:55:42;;;;;;;8.25;3.22;;;;;;;18.75;53.90;97433.28;4995243;28;20734;-65
2023/05/29 08:58:10;;;;;;;8.18;3.75;;;;;;;18.79;52.83;97434.31;5000423;28;20049;-64
2023/05/29 09:00:37;;;;;;;10.77;3.70;;;;;;;18.89;52.86;97430.53;4993865;28;20042;-64
2023/05/29 09:03:03;;;;;;;5.85;3.22;;;;;;;18.88;53.06;97439.88;5000238;28;20046;-64
2023/05/29 09:05:30;;;;;;;7.28;3.67;;;;;;;18.92;53.08;97436.22;4999042;28;20042;-64
2023/05/29 09:07:56;;;;;;;7.20;3.25;;;;;;;18.94;53.28;97442.22;4997220;28;20525;-65
2023/05/29 09:10:25;;;;;;;6.93;3.13;;;;;;;19.02;53.37;97437.94;5002676;28;20096;-65
2023/05/29 09:12:52;;;;;;;8.80;3.40;;;;;;;19.08;52.71;97457.88;5000682;28;20077;-64
2023/05/29 09:15:21;;;;;;;5.65;2.95;;;;;;;19.14;52.55;97442.94;4997481;28;20246;-65
2023/05/29 09:17:57;;;;;;;6.55;3.30;;;;;;;19.33;54.38;97447.47;5002730;28;20046;-64
2023/05/29 09:20:24;;;;;;;8.40;4.00;;;;;;;19.35;52.44;97453.50;4994177;28;20045;-65
2023/05/29 09:23:00;;;;;;;5.82;3.08;;;;;;;19.43;52.80;97457.44;4996713;28;20057;-64
2023/05/29 09:25:28;;;;;;;6.55;3.15;;;;;;;19.53;53.36;97448.97;4998424;28;20161;-64
2023/05/29 09:27:59;;;;;;;6.28;3.25;;;;;;;19.67;53.64;97448.09;4991599;28;20045;-64
2023/05/29 09:30:37;;;;;;;13.23;3.30;;;;;;;19.76;52.86;97449.81;4991643;28;20049;-65
2023/05/29 09:33:05;;;;;;;7.22;3.22;;;;;;;19.83;50.92;97456.81;4995706;28;20042;-64
2023/05/29 09:35:46;;;;;;;8.90;3.72;;;;;;;19.85;51.40;97460.88;4995859;28;20054;-63
2023/05/29 09:38:17;;;;;;;6.70;3.58;;;;;;;19.91;51.84;97458.81;4998068;28;20138;-64
2023/05/29 09:41:05;;;;;;;7.22;3.53;;;;;;;19.87;51.30;97457.81;4990593;28;20842;-65
2023/05/29 09:43:32;;;;;;;8.20;3.33;;;;;;;19.99;50.96;97446.28;4992585;28;20459;-64
2023/05/29 09:46:00;;;;;;;8.07;3.38;;;;;;;20.13;50.82;97451.72;5001692;28;20057;-64
2023/05/29 09:48:29;;;;;;;8.63;3.83;;;;;;;20.08;50.45;97460.91;5000194;28;20096;-65
2023/05/29 09:50:57;;;;;;;7.10;3.33;;;;;;;20.22;51.00;97458.09;4985711;28;20054;-65
2023/05/29 09:53:26;;;;;;;7.20;3.40;;;;;;;20.18;49.33;97459.84;4988208;28;20049;-64
2023/05/29 09:55:54;;;;;;;10.60;3.47;;;;;;;20.17;50.19;97455.47;4988878;28;20052;-61
2023/05/29 09:58:25;;;;;;;5.53;3.10;;;;;;;20.18;51.01;97454.34;4965887;28;20905;-61
2023/05/29 10:00:53;;;;;;;5.63;3.35;;;;;;;20.32;50.72;97446.03;4984422;28;20053;-60
2023/05/29 10:03:21;;;;;;;5.45;3.17;;;;;;;20.40;50.34;97452.69;4989861;28;20053;-61
2023/05/29 10:05:56;;;;;;;6.93;3.50;;;;;;;20.43;50.54;97445.75;4990911;28;20485;-61
2023/05/29 10:08:33;;;;;;;9.13;3.28;;;;;;;20.47;49.43;97452.25;4994815;28;20052;-62
2023/05/29 10:11:03;;;;;;;7.70;3.45;;;;;;;20.50;49.95;97444.16;4988024;28;20409;-63
2023/05/29 10:13:36;;;;;;;8.07;3.67;;;;;;;20.56;48.40;97446.81;4992482;28;20034;-63
2023/05/29 10:16:03;;;;;;;8.48;3.65;;;;;;;20.72;49.45;97437.00;4993517;28;20054;-64
2023/05/29 10:18:37;;;;;;;6.43;3.33;;;;;;;20.88;47.52;97433.84;4996075;28;20049;-63
2023/05/29 10:21:06;;;;;;;7.00;3.22;;;;;;;20.93;46.89;97436.44;4994976;28;20048;-64
2023/05/29 10:23:36;;;;;;;7.47;3.15;;;;;;;20.91;46.25;97434.03;4999037;28;20120;-64
2023/05/29 10:26:11;;;;;;;6.78;3.10;;;;;;;20.99;46.63;97434.34;4998348;28;20044;-64
2023/05/29 10:28:44;;;;;;;7.13;3.58;;;;;;;21.08;47.71;97424.19;4998029;28;20489;-64
2023/05/29 10:31:22;;;;;;;8.13;3.95;;;;;;;21.19;47.99;97430.19;4999038;28;20050;-62
2023/05/29 10:33:56;;;;;;;9.45;3.58;;;;;;;21.31;47.65;97426.84;4996073;28;20093;-65
2023/05/29 10:36:28;;;;;;;6.10;3.25;;;;;;;21.23;46.93;97427.63;4995611;28;20041;-64
2023/05/29 10:38:55;;;;;;;5.93;3.10;;;;;;;21.30;47.82;97417.75;4996604;28;20042;-64
2023/05/29 10:41:27;;;;;;;7.47;3.80;;;;;;;21.36;47.04;97423.91;4991220;28;20097;-64
2023/05/29 10:43:55;;;;;;;6.85;3.75;;;;;;;21.45;47.16;97415.69;4992028;28;20061;-64
2023/05/29 10:46:41;;;;;;;6.50;3.13;;;;;;;21.49;47.24;97424.88;4994528;28;20053;-64
2023/05/29 10:49:19;;;;;;;9.00;3.28;;;;;;;21.53;46.72;97416.81;4997577;28;20074;-63
2023/05/29 10:51:48;;;;;;;6.30;3.10;;;;;;;21.55;46.70;97422.78;4994924;28;20053;-65
2023/05/29 10:54:16;;;;;;;8.68;3.60;;;;;;;21.63;46.41;97427.50;4996338;28;20050;-63
2023/05/29 10:56:51;;;;;;;7.47;3.55;;;;;;;21.73;45.79;97423.63;4995881;28;20056;-64
2023/05/29 10:59:18;;;;;;;7.68;3.15;;;;;;;21.83;44.99;97417.78;5002025;28;20037;-64
2023/05/29 11:01:45;;;;;;;7.47;3.28;;;;;;;21.85;45.48;97413.91;4997618;28;20133;-64
2023/05/29 11:04:17;;;;;;;7.22;3.25;;;;;;;21.89;46.77;97404.66;4991232;28;20136;-64
2023/05/29 11:06:44;;;;;;;4.65;2.90;;;;;;;22.01;45.80;97411.47;4996809;28;20053;-64
2023/05/29 11:09:37;;;;;;;7.03;2.92;;;;;;;22.24;44.23;97414.81;4997152;28;20054;-64
2023/05/29 11:12:35;;;;;;;8.38;3.00;;;;;;;22.42;43.95;97410.06;4995576;28;20033;-65
2023/05/29 11:15:12;;;;;;;5.03;2.97;;;;;;;22.40;43.44;97414.31;5000413;28;20421;-61
2023/05/29 11:17:38;;;;;;;6.45;3.50;;;;;;;22.57;42.52;97408.75;4998909;28;20034;-61
2023/05/29 11:20:06;;;;;;;7.35;3.25;;;;;;;22.79;41.10;97409.63;4997328;28;20042;-62
2023/05/29 11:22:48;;;;;;;8.27;3.67;;;;;;;22.94;42.48;97405.50;4997978;28;20122;-61
2023/05/29 11:25:15;;;;;;;7.55;3.00;;;;;;;23.18;41.51;97411.53;4994426;28;20050;-61
2023/05/29 11:27:44;;;;;;;6.85;3.00;;;;;;;23.11;38.49;97412.84;4995807;28;20070;-61
2023/05/29 11:30:11;;;;;;;7.88;3.38;;;;;;;23.42;37.98;97413.66;4999415;28;20045;-62
2023/05/29 11:32:40;;;;;;;7.30;2.97;;;;;;;23.45;38.31;97403.88;4995556;28;20101;-62
2023/05/29 11:35:08;;;;;;;5.35;2.72;;;;;;;23.49;38.69;97411.19;4998494;28;20044;-62
2023/05/29 11:37:35;;;;;;;6.13;2.58;;;;;;;23.40;39.19;97402.13;5000715;28;20056;-62
2023/05/29 11:40:08;;;;;;;7.35;3.05;;;;;;;23.44;38.18;97408.59;5000005;28;20080;-62
2023/05/29 11:42:35;;;;;;;8.45;2.95;;;;;;;23.39;38.52;97408.81;5000115;28;20046;-63
2023/05/29 11:45:12;;;;;;;6.97;2.65;;;;;;;23.25;37.61;97411.78;4999114;28;20038;-62